sensor_id;sensor_type;location;lat;lon;timestamp;P1;P2;P0
70520;PMS5003;58442;52.716;23.560;2023-05-19T00:01:43;1;1;1
70520;PMS5003;58442;52.716;23.560;2023-05-19T00:03:51;0;0;0
70520;PMS5003;58442;52.716;23.560;2023-05-19T00:05:54;1;1;1
70520;PMS5003;58442;52.716;23.560;2023-05-19T00:07:58;1;1;1
70520;PMS5003;58442;52.716;23.560;2023-05-19T00:10:01;1;1;1
70520;PMS5003;58442;52.716;23.560;2023-05-19T00:12:03;1;1;1
70520;PMS5003;58442;52.716;23.560;2023-05-19T00:14:06;1;1;1
70520;PMS5003;58442;52.716;23.560;2023-05-19T00:16:09;1;1;1
70520;PMS5003;58442;52.716;23.560;2023-05-19T00:18:13;1;1;0
70520;PMS5003;58442;52.716;23.560;2023-05-19T00:20:17;2;2;1
70520;PMS5003;58442;52.716;23.560;2023-05-19T00:22:19;1;1;1
70520;PMS5003;58442;52.716;23.560;2023-05-19T00:24:20;2;2;1
70520;PMS5003;58442;52.716;23.560;2023-05-19T00:26:28;0;0;0
70520;PMS5003;58442;52.716;23.560;2023-05-19T00:28:30;1;1;1
70520;PMS5003;58442;52.716;23.560;2023-05-19T00:30:32;0;0;0
70520;PMS5003;58442;52.716;23.560;2023-05-19T00:32:33;0;0;0
70520;PMS5003;58442;52.716;23.560;2023-05-19T00:34:43;1;1;1
70520;PMS5003;58442;52.716;23.560;2023-05-19T00:36:47;0;0;0
70520;PMS5003;58442;52.716;23.560;2023-05-19T00:38:49;2;2;1
70520;PMS5003;58442;52.716;23.560;2023-05-19T00:40:51;1;1;1
70520;PMS5003;58442;52.716;23.560;2023-05-19T00:42:58;1;1;1
70520;PMS5003;58442;52.716;23.560;2023-05-19T00:45:00;1;1;1
70520;PMS5003;58442;52.716;23.560;2023-05-19T00:47:01;1;1;1
70520;PMS5003;58442;52.716;23.560;2023-05-19T00:49:03;0;0;0
70520;PMS5003;58442;52.716;23.560;2023-05-19T00:51:13;2;2;1
70520;PMS5003;58442;52.716;23.560;2023-05-19T00:53:17;1;1;1
70520;PMS5003;58442;52.716;23.560;2023-05-19T00:55:20;1;1;1
70520;PMS5003;58442;52.716;23.560;2023-05-19T00:57:23;2;2;1
70520;PMS5003;58442;52.716;23.560;2023-05-19T00:59:27;2;2;2
70520;PMS5003;58442;52.716;23.560;2023-05-19T01:01:29;1;1;1
70520;PMS5003;58442;52.716;23.560;2023-05-19T01:03:32;4;3;3
70520;PMS5003;58442;52.716;23.560;2023-05-19T01:05:38;4;4;3
70520;PMS5003;58442;52.716;23.560;2023-05-19T01:07:42;4;4;2
70520;PMS5003;58442;52.716;23.560;2023-05-19T01:09:47;6;5;3
70520;PMS5003;58442;52.716;23.560;2023-05-19T01:11:49;4;4;3
70520;PMS5003;58442;52.716;23.560;2023-05-19T01:13:51;5;5;3
70520;PMS5003;58442;52.716;23.560;2023-05-19T01:18:20;3;3;3
70520;PMS5003;58442;52.716;23.560;2023-05-19T01:20:40;3;3;3
70520;PMS5003;58442;52.716;23.560;2023-05-19T01:22:56;3;3;2
70520;PMS5003;58442;52.716;23.560;2023-05-19T01:31:45;5;5;4
70520;PMS5003;58442;52.716;23.560;2023-05-19T01:33:52;2;2;2
70520;PMS5003;58442;52.716;23.560;2023-05-19T01:35:54;4;4;3
70520;PMS5003;58442;52.716;23.560;2023-05-19T01:37:58;1;1;1
70520;PMS5003;58442;52.716;23.560;2023-05-19T01:40:01;3;3;2
70520;PMS5003;58442;52.716;23.560;2023-05-19T01:42:06;3;3;3
70520;PMS5003;58442;52.716;23.560;2023-05-19T01:44:08;3;3;3
70520;PMS5003;58442;52.716;23.560;2023-05-19T01:46:10;3;3;3
70520;PMS5003;58442;52.716;23.560;2023-05-19T01:48:13;3;3;3
70520;PMS5003;58442;52.716;23.560;2023-05-19T01:50:21;5;5;4
70520;PMS5003;58442;52.716;23.560;2023-05-19T01:52:23;3;3;2
70520;PMS5003;58442;52.716;23.560;2023-05-19T01:54:25;2;2;2
70520;PMS5003;58442;52.716;23.560;2023-05-19T01:56:33;1;1;1
70520;PMS5003;58442;52.716;23.560;2023-05-19T01:58:46;1;1;1
70520;PMS5003;58442;52.716;23.560;2023-05-19T02:08:05;2;2;1
70520;PMS5003;58442;52.716;23.560;2023-05-19T02:10:24;1;1;1
70520;PMS5003;58442;52.716;23.560;2023-05-19T02:12:38;1;1;1
70520;PMS5003;58442;52.716;23.560;2023-05-19T02:14:44;1;1;1
70520;PMS5003;58442;52.716;23.560;2023-05-19T02:16:54;0;0;0
70520;PMS5003;58442;52.716;23.560;2023-05-19T02:18:59;0;0;0
70520;PMS5003;58442;52.716;23.560;2023-05-19T02:21:06;1;1;1
70520;PMS5003;58442;52.716;23.560;2023-05-19T02:23:13;0;0;0
70520;PMS5003;58442;52.716;23.560;2023-05-19T02:25:15;0;0;0
70520;PMS5003;58442;52.716;23.560;2023-05-19T02:27:16;1;1;1
70520;PMS5003;58442;52.716;23.560;2023-05-19T02:29:21;1;1;0
70520;PMS5003;58442;52.716;23.560;2023-05-19T02:31:24;0;0;0
70520;PMS5003;58442;52.716;23.560;2023-05-19T02:33:27;0;0;0
70520;PMS5003;58442;52.716;23.560;2023-05-19T02:35:30;0;0;0
70520;PMS5003;58442;52.716;23.560;2023-05-19T02:37:36;0;0;0
70520;PMS5003;58442;52.716;23.560;2023-05-19T02:39:42;0;0;0
70520;PMS5003;58442;52.716;23.560;2023-05-19T02:41:45;1;1;1
70520;PMS5003;58442;52.716;23.560;2023-05-19T02:43:47;1;1;0
70520;PMS5003;58442;52.716;23.560;2023-05-19T02:45:51;0;0;0
70520;PMS5003;58442;52.716;23.560;2023-05-19T02:47:53;0;0;0
70520;PMS5003;58442;52.716;23.560;2023-05-19T02:49:57;1;1;1
70520;PMS5003;58442;52.716;23.560;2023-05-19T02:51:59;1;1;1
70520;PMS5003;58442;52.716;23.560;2023-05-19T02:54:06;1;1;0
70520;PMS5003;58442;52.716;23.560;2023-05-19T02:56:08;1;1;0
70520;PMS5003;58442;52.716;23.560;2023-05-19T02:58:09;0;0;0
70520;PMS5003;58442;52.716;23.560;2023-05-19T03:00:11;0;0;0
70520;PMS5003;58442;52.716;23.560;2023-05-19T03:02:21;0;0;0
70520;PMS5003;58442;52.716;23.560;2023-05-19T03:04:23;1;1;1
70520;PMS5003;58442;52.716;23.560;2023-05-19T03:06:25;1;1;1
70520;PMS5003;58442;52.716;23.560;2023-05-19T03:08:27;1;1;1
70520;PMS5003;58442;52.716;23.560;2023-05-19T03:10:35;0;0;0
70520;PMS5003;58442;52.716;23.560;2023-05-19T03:12:37;2;2;2
70520;PMS5003;58442;52.716;23.560;2023-05-19T03:14:39;1;1;1
70520;PMS5003;58442;52.716;23.560;2023-05-19T03:16:41;1;1;1
70520;PMS5003;58442;52.716;23.560;2023-05-19T03:18:50;0;0;0
70520;PMS5003;58442;52.716;23.560;2023-05-19T03:20:52;1;1;1
70520;PMS5003;58442;52.716;23.560;2023-05-19T03:22:54;1;0;0
70520;PMS5003;58442;52.716;23.560;2023-05-19T03:24:56;3;3;2
70520;PMS5003;58442;52.716;23.560;2023-05-19T03:27:05;2;2;1
70520;PMS5003;58442;52.716;23.560;2023-05-19T03:29:07;1;1;1
70520;PMS5003;58442;52.716;23.560;2023-05-19T03:31:09;1;1;1
70520;PMS5003;58442;52.716;23.560;2023-05-19T03:33:10;1;1;1
70520;PMS5003;58442;52.716;23.560;2023-05-19T03:35:20;2;2;1
70520;PMS5003;58442;52.716;23.560;2023-05-19T03:37:22;2;2;1
70520;PMS5003;58442;52.716;23.560;2023-05-19T03:39:24;0;0;0
70520;PMS5003;58442;52.716;23.560;2023-05-19T03:41:26;0;0;0
70520;PMS5003;58442;52.716;23.560;2023-05-19T03:43:35;2;2;1
70520;PMS5003;58442;52.716;23.560;2023-05-19T03:45:37;2;2;1
70520;PMS5003;58442;52.716;23.560;2023-05-19T03:47:38;1;1;1
70520;PMS5003;58442;52.716;23.560;2023-05-19T03:49:41;2;2;2
70520;PMS5003;58442;52.716;23.560;2023-05-19T03:51:50;0;0;0
70520;PMS5003;58442;52.716;23.560;2023-05-19T03:53:52;0;0;0
70520;PMS5003;58442;52.716;23.560;2023-05-19T03:55:54;2;2;1
70520;PMS5003;58442;52.716;23.560;2023-05-19T03:57:56;1;1;1
70520;PMS5003;58442;52.716;23.560;2023-05-19T04:00:05;1;1;1
70520;PMS5003;58442;52.716;23.560;2023-05-19T04:02:07;1;1;1
70520;PMS5003;58442;52.716;23.560;2023-05-19T04:04:09;1;1;1
70520;PMS5003;58442;52.716;23.560;2023-05-19T04:06:10;1;1;1
70520;PMS5003;58442;52.716;23.560;2023-05-19T04:08:19;1;1;1
70520;PMS5003;58442;52.716;23.560;2023-05-19T04:10:21;1;1;1
70520;PMS5003;58442;52.716;23.560;2023-05-19T04:12:22;2;2;2
70520;PMS5003;58442;52.716;23.560;2023-05-19T04:14:24;2;2;1
70520;PMS5003;58442;52.716;23.560;2023-05-19T04:16:34;1;1;1
70520;PMS5003;58442;52.716;23.560;2023-05-19T04:18:35;1;1;1
70520;PMS5003;58442;52.716;23.560;2023-05-19T04:20:37;1;1;1
70520;PMS5003;58442;52.716;23.560;2023-05-19T04:22:39;1;1;0
70520;PMS5003;58442;52.716;23.560;2023-05-19T04:24:49;2;2;2
70520;PMS5003;58442;52.716;23.560;2023-05-19T04:26:52;1;1;1
70520;PMS5003;58442;52.716;23.560;2023-05-19T04:28:54;0;0;0
70520;PMS5003;58442;52.716;23.560;2023-05-19T04:30:56;0;0;0
70520;PMS5003;58442;52.716;23.560;2023-05-19T04:33:04;1;1;1
70520;PMS5003;58442;52.716;23.560;2023-05-19T04:35:07;1;1;1
70520;PMS5003;58442;52.716;23.560;2023-05-19T04:37:08;2;2;1
70520;PMS5003;58442;52.716;23.560;2023-05-19T04:39:10;1;1;1
70520;PMS5003;58442;52.716;23.560;2023-05-19T04:41:19;1;1;1
70520;PMS5003;58442;52.716;23.560;2023-05-19T04:43:22;0;0;0
70520;PMS5003;58442;52.716;23.560;2023-05-19T04:45:24;1;1;1
70520;PMS5003;58442;52.716;23.560;2023-05-19T04:47:26;1;1;1
70520;PMS5003;58442;52.716;23.560;2023-05-19T04:49:34;1;1;0
70520;PMS5003;58442;52.716;23.560;2023-05-19T04:51:38;1;1;1
70520;PMS5003;58442;52.716;23.560;2023-05-19T04:53:49;1;1;1
70520;PMS5003;58442;52.716;23.560;2023-05-19T04:55:52;1;1;1
70520;PMS5003;58442;52.716;23.560;2023-05-19T04:57:53;1;1;1
70520;PMS5003;58442;52.716;23.560;2023-05-19T04:59:55;1;1;1
70520;PMS5003;58442;52.716;23.560;2023-05-19T05:01:59;0;0;0
70520;PMS5003;58442;52.716;23.560;2023-05-19T05:04:01;1;1;0
70520;PMS5003;58442;52.716;23.560;2023-05-19T05:06:08;1;1;1
70520;PMS5003;58442;52.716;23.560;2023-05-19T05:08:11;0;0;0
70520;PMS5003;58442;52.716;23.560;2023-05-19T05:10:19;2;2;1
70520;PMS5003;58442;52.716;23.560;2023-05-19T05:12:21;2;2;1
70520;PMS5003;58442;52.716;23.560;2023-05-19T05:14:24;1;1;0
70520;PMS5003;58442;52.716;23.560;2023-05-19T05:16:26;1;1;1
70520;PMS5003;58442;52.716;23.560;2023-05-19T05:18:29;1;1;1
70520;PMS5003;58442;52.716;23.560;2023-05-19T05:20:31;2;2;2
70520;PMS5003;58442;52.716;23.560;2023-05-19T05:22:38;2;2;1
70520;PMS5003;58442;52.716;23.560;2023-05-19T05:24:41;1;1;1
70520;PMS5003;58442;52.716;23.560;2023-05-19T05:26:43;2;2;2
70520;PMS5003;58442;52.716;23.560;2023-05-19T05:28:47;1;1;1
70520;PMS5003;58442;52.716;23.560;2023-05-19T05:30:53;1;1;1
70520;PMS5003;58442;52.716;23.560;2023-05-19T05:32:57;1;1;1
70520;PMS5003;58442;52.716;23.560;2023-05-19T05:34:59;1;1;1
70520;PMS5003;58442;52.716;23.560;2023-05-19T05:37:01;1;1;1
70520;PMS5003;58442;52.716;23.560;2023-05-19T05:39:08;1;1;0
70520;PMS5003;58442;52.716;23.560;2023-05-19T05:41:09;1;1;1
70520;PMS5003;58442;52.716;23.560;2023-05-19T05:43:11;2;2;2
70520;PMS5003;58442;52.716;23.560;2023-05-19T05:45:13;1;1;1
70520;PMS5003;58442;52.716;23.560;2023-05-19T05:47:23;2;2;1
70520;PMS5003;58442;52.716;23.560;2023-05-19T05:49:25;1;1;1
70520;PMS5003;58442;52.716;23.560;2023-05-19T05:51:27;3;3;2
70520;PMS5003;58442;52.716;23.560;2023-05-19T05:53:29;1;1;1
70520;PMS5003;58442;52.716;23.560;2023-05-19T05:55:38;3;3;2
70520;PMS5003;58442;52.716;23.560;2023-05-19T05:57:40;2;2;2
70520;PMS5003;58442;52.716;23.560;2023-05-19T05:59:42;0;0;0
70520;PMS5003;58442;52.716;23.560;2023-05-19T06:01:46;1;1;1
70520;PMS5003;58442;52.716;23.560;2023-05-19T06:03:52;1;1;1
70520;PMS5003;58442;52.716;23.560;2023-05-19T06:05:54;0;0;0
70520;PMS5003;58442;52.716;23.560;2023-05-19T06:07:55;2;2;2
70520;PMS5003;58442;52.716;23.560;2023-05-19T06:09:57;1;1;1
70520;PMS5003;58442;52.716;23.560;2023-05-19T06:12:07;1;1;1
70520;PMS5003;58442;52.716;23.560;2023-05-19T06:14:09;0;0;0
70520;PMS5003;58442;52.716;23.560;2023-05-19T06:16:11;1;1;1
70520;PMS5003;58442;52.716;23.560;2023-05-19T06:18:13;2;2;1
70520;PMS5003;58442;52.716;23.560;2023-05-19T06:20:22;2;2;2
70520;PMS5003;58442;52.716;23.560;2023-05-19T06:22:25;1;1;1
70520;PMS5003;58442;52.716;23.560;2023-05-19T06:24:28;1;1;1
70520;PMS5003;58442;52.716;23.560;2023-05-19T06:26:30;2;2;1
70520;PMS5003;58442;52.716;23.560;2023-05-19T06:28:37;1;1;1
70520;PMS5003;58442;52.716;23.560;2023-05-19T06:30:38;1;1;1
70520;PMS5003;58442;52.716;23.560;2023-05-19T06:32:40;1;1;1
70520;PMS5003;58442;52.716;23.560;2023-05-19T06:34:42;2;2;1
70520;PMS5003;58442;52.716;23.560;2023-05-19T06:36:51;1;1;1
70520;PMS5003;58442;52.716;23.560;2023-05-19T06:38:53;1;1;1
70520;PMS5003;58442;52.716;23.560;2023-05-19T06:40:55;2;2;2
70520;PMS5003;58442;52.716;23.560;2023-05-19T06:42:57;1;1;1
70520;PMS5003;58442;52.716;23.560;2023-05-19T06:45:06;1;1;1
70520;PMS5003;58442;52.716;23.560;2023-05-19T06:47:09;1;1;1
70520;PMS5003;58442;52.716;23.560;2023-05-19T06:49:11;1;1;1
70520;PMS5003;58442;52.716;23.560;2023-05-19T06:51:13;1;1;1
70520;PMS5003;58442;52.716;23.560;2023-05-19T06:53:21;2;2;2
70520;PMS5003;58442;52.716;23.560;2023-05-19T06:55:22;2;2;1
70520;PMS5003;58442;52.716;23.560;2023-05-19T06:57:25;1;1;1
70520;PMS5003;58442;52.716;23.560;2023-05-19T06:59:27;1;1;1
70520;PMS5003;58442;52.716;23.560;2023-05-19T07:01:36;1;1;1
70520;PMS5003;58442;52.716;23.560;2023-05-19T07:03:38;1;1;1
70520;PMS5003;58442;52.716;23.560;2023-05-19T07:05:41;1;1;1
70520;PMS5003;58442;52.716;23.560;2023-05-19T07:07:42;3;3;2
70520;PMS5003;58442;52.716;23.560;2023-05-19T07:09:51;3;3;2
70520;PMS5003;58442;52.716;23.560;2023-05-19T07:11:52;1;1;1
70520;PMS5003;58442;52.716;23.560;2023-05-19T07:13:56;1;1;1
70520;PMS5003;58442;52.716;23.560;2023-05-19T07:15:58;1;1;1
70520;PMS5003;58442;52.716;23.560;2023-05-19T07:18:05;1;1;1
70520;PMS5003;58442;52.716;23.560;2023-05-19T07:20:08;1;1;1
70520;PMS5003;58442;52.716;23.560;2023-05-19T07:22:10;2;2;2
70520;PMS5003;58442;52.716;23.560;2023-05-19T07:24:11;1;1;1
70520;PMS5003;58442;52.716;23.560;2023-05-19T07:26:20;1;1;0
70520;PMS5003;58442;52.716;23.560;2023-05-19T07:28:23;1;1;1
70520;PMS5003;58442;52.716;23.560;2023-05-19T07:30:26;1;1;1
70520;PMS5003;58442;52.716;23.560;2023-05-19T07:32:29;0;0;0
70520;PMS5003;58442;52.716;23.560;2023-05-19T07:34:35;3;3;3
70520;PMS5003;58442;52.716;23.560;2023-05-19T07:36:37;1;1;1
70520;PMS5003;58442;52.716;23.560;2023-05-19T07:38:39;1;1;1
70520;PMS5003;58442;52.716;23.560;2023-05-19T07:40:40;2;2;1
70520;PMS5003;58442;52.716;23.560;2023-05-19T07:42:50;1;1;1
70520;PMS5003;58442;52.716;23.560;2023-05-19T07:44:52;2;2;2
70520;PMS5003;58442;52.716;23.560;2023-05-19T07:46:54;2;2;2
70520;PMS5003;58442;52.716;23.560;2023-05-19T07:48:56;2;2;1
70520;PMS5003;58442;52.716;23.560;2023-05-19T07:51:04;2;2;2
70520;PMS5003;58442;52.716;23.560;2023-05-19T07:53:09;1;1;1
70520;PMS5003;58442;52.716;23.560;2023-05-19T07:55:11;0;0;0
70520;PMS5003;58442;52.716;23.560;2023-05-19T07:57:14;1;1;1
70520;PMS5003;58442;52.716;23.560;2023-05-19T07:59:19;0;0;0
70520;PMS5003;58442;52.716;23.560;2023-05-19T08:01:21;1;1;1
70520;PMS5003;58442;52.716;23.560;2023-05-19T08:03:23;2;2;1
70520;PMS5003;58442;52.716;23.560;2023-05-19T08:05:25;1;1;1
70520;PMS5003;58442;52.716;23.560;2023-05-19T08:07:34;1;1;1
70520;PMS5003;58442;52.716;23.560;2023-05-19T08:09:36;2;2;2
70520;PMS5003;58442;52.716;23.560;2023-05-19T08:11:38;0;0;0
70520;PMS5003;58442;52.716;23.560;2023-05-19T08:13:40;1;1;1
70520;PMS5003;58442;52.716;23.560;2023-05-19T08:15:49;1;1;1
70520;PMS5003;58442;52.716;23.560;2023-05-19T08:17:58;1;1;1
70520;PMS5003;58442;52.716;23.560;2023-05-19T08:20:01;1;1;1
70520;PMS5003;58442;52.716;23.560;2023-05-19T08:22:09;1;1;1
70520;PMS5003;58442;52.716;23.560;2023-05-19T08:24:11;3;3;2
70520;PMS5003;58442;52.716;23.560;2023-05-19T08:26:13;1;1;1
70520;PMS5003;58442;52.716;23.560;2023-05-19T08:28:15;3;3;2
70520;PMS5003;58442;52.716;23.560;2023-05-19T08:30:17;1;1;1
70520;PMS5003;58442;52.716;23.560;2023-05-19T08:32:20;2;2;2
70520;PMS5003;58442;52.716;23.560;2023-05-19T08:34:23;0;0;0
70520;PMS5003;58442;52.716;23.560;2023-05-19T08:36:25;2;2;2
70520;PMS5003;58442;52.716;23.560;2023-05-19T08:38:28;2;2;2
70520;PMS5003;58442;52.716;23.560;2023-05-19T08:40:35;2;2;2
70520;PMS5003;58442;52.716;23.560;2023-05-19T08:42:38;2;2;2
70520;PMS5003;58442;52.716;23.560;2023-05-19T08:44:40;1;1;1
70520;PMS5003;58442;52.716;23.560;2023-05-19T08:46:45;3;3;2
70520;PMS5003;58442;52.716;23.560;2023-05-19T08:48:49;2;2;2
70520;PMS5003;58442;52.716;23.560;2023-05-19T08:51:05;3;3;3
70520;PMS5003;58442;52.716;23.560;2023-05-19T08:53:29;2;2;2
70520;PMS5003;58442;52.716;23.560;2023-05-19T08:57:36;5;5;5
70520;PMS5003;58442;52.716;23.560;2023-05-19T08:59:38;5;5;4
70520;PMS5003;58442;52.716;23.560;2023-05-19T09:01:42;6;6;6
70520;PMS5003;58442;52.716;23.560;2023-05-19T09:03:49;7;7;5
70520;PMS5003;58442;52.716;23.560;2023-05-19T09:05:52;5;5;3
70520;PMS5003;58442;52.716;23.560;2023-05-19T09:07:54;4;4;3
70520;PMS5003;58442;52.716;23.560;2023-05-19T09:09:57;5;5;4
70520;PMS5003;58442;52.716;23.560;2023-05-19T09:12:00;5;5;4
70520;PMS5003;58442;52.716;23.560;2023-05-19T09:14:03;4;4;4
70520;PMS5003;58442;52.716;23.560;2023-05-19T09:16:08;4;4;4
70520;PMS5003;58442;52.716;23.560;2023-05-19T09:18:11;3;3;2
70520;PMS5003;58442;52.716;23.560;2023-05-19T09:20:15;3;3;3
70520;PMS5003;58442;52.716;23.560;2023-05-19T09:22:17;4;4;3
70520;PMS5003;58442;52.716;23.560;2023-05-19T09:24:23;3;3;2
70520;PMS5003;58442;52.716;23.560;2023-05-19T09:26:34;4;4;3
70520;PMS5003;58442;52.716;23.560;2023-05-19T09:28:40;3;3;2
70520;PMS5003;58442;52.716;23.560;2023-05-19T09:30:41;2;2;1
70520;PMS5003;58442;52.716;23.560;2023-05-19T09:32:44;4;4;3
70520;PMS5003;58442;52.716;23.560;2023-05-19T09:34:46;4;4;3
70520;PMS5003;58442;52.716;23.560;2023-05-19T09:36:48;3;3;2
70520;PMS5003;58442;52.716;23.560;2023-05-19T09:38:51;3;3;2
70520;PMS5003;58442;52.716;23.560;2023-05-19T09:40:59;1;1;0
70520;PMS5003;58442;52.716;23.560;2023-05-19T09:43:03;1;1;1
70520;PMS5003;58442;52.716;23.560;2023-05-19T09:45:07;2;2;2
70520;PMS5003;58442;52.716;23.560;2023-05-19T09:47:11;4;4;3
70520;PMS5003;58442;52.716;23.560;2023-05-19T09:49:17;2;2;2
70520;PMS5003;58442;52.716;23.560;2023-05-19T09:51:22;4;4;3
70520;PMS5003;58442;52.716;23.560;2023-05-19T09:53:25;2;2;2
70520;PMS5003;58442;52.716;23.560;2023-05-19T09:55:27;3;3;2
70520;PMS5003;58442;52.716;23.560;2023-05-19T09:57:32;3;3;3
70520;PMS5003;58442;52.716;23.560;2023-05-19T09:59:50;2;2;2
70520;PMS5003;58442;52.716;23.560;2023-05-19T10:01:53;2;2;2
70520;PMS5003;58442;52.716;23.560;2023-05-19T10:03:58;3;3;2
70520;PMS5003;58442;52.716;23.560;2023-05-19T10:06:01;5;5;3
70520;PMS5003;58442;52.716;23.560;2023-05-19T10:08:05;3;3;3
70520;PMS5003;58442;52.716;23.560;2023-05-19T10:10:11;4;4;3
70520;PMS5003;58442;52.716;23.560;2023-05-19T10:12:13;2;2;2
70520;PMS5003;58442;52.716;23.560;2023-05-19T10:14:18;2;2;2
70520;PMS5003;58442;52.716;23.560;2023-05-19T10:16:24;3;3;3
70520;PMS5003;58442;52.716;23.560;2023-05-19T10:18:28;3;3;3
70520;PMS5003;58442;52.716;23.560;2023-05-19T10:20:30;2;2;1
70520;PMS5003;58442;52.716;23.560;2023-05-19T10:22:34;2;2;1
70520;PMS5003;58442;52.716;23.560;2023-05-19T10:24:37;4;4;3
70520;PMS5003;58442;52.716;23.560;2023-05-19T10:26:38;4;4;3
70520;PMS5003;58442;52.716;23.560;2023-05-19T10:28:45;2;2;2
70520;PMS5003;58442;52.716;23.560;2023-05-19T10:30:49;3;3;3
70520;PMS5003;58442;52.716;23.560;2023-05-19T10:32:53;1;1;1
70520;PMS5003;58442;52.716;23.560;2023-05-19T10:39:32;2;2;2
70520;PMS5003;58442;52.716;23.560;2023-05-19T10:41:56;4;4;3
70520;PMS5003;58442;52.716;23.560;2023-05-19T10:46:05;3;3;3
70520;PMS5003;58442;52.716;23.560;2023-05-19T10:48:10;1;1;1
70520;PMS5003;58442;52.716;23.560;2023-05-19T10:50:13;5;5;5
70520;PMS5003;58442;52.716;23.560;2023-05-19T10:52:20;5;5;3
70520;PMS5003;58442;52.716;23.560;2023-05-19T10:56:40;4;4;4
70520;PMS5003;58442;52.716;23.560;2023-05-19T10:58:50;5;5;4
70520;PMS5003;58442;52.716;23.560;2023-05-19T11:00:58;6;5;3
70520;PMS5003;58442;52.716;23.560;2023-05-19T11:05:14;5;5;4
70520;PMS5003;58442;52.716;23.560;2023-05-19T11:07:20;5;5;4
70520;PMS5003;58442;52.716;23.560;2023-05-19T11:09:24;9;9;8
70520;PMS5003;58442;52.716;23.560;2023-05-19T11:11:26;10;10;8
70520;PMS5003;58442;52.716;23.560;2023-05-19T11:13:39;12;12;8
70520;PMS5003;58442;52.716;23.560;2023-05-19T11:15:42;10;10;7
70520;PMS5003;58442;52.716;23.560;2023-05-19T11:17:54;8;8;6
70520;PMS5003;58442;52.716;23.560;2023-05-19T11:19:56;8;8;7
70520;PMS5003;58442;52.716;23.560;2023-05-19T11:24:31;4;4;3
70520;PMS5003;58442;52.716;23.560;2023-05-19T11:28:37;6;6;5
70520;PMS5003;58442;52.716;23.560;2023-05-19T11:30:43;5;5;5
70520;PMS5003;58442;52.716;23.560;2023-05-19T11:32:48;4;4;3
70520;PMS5003;58442;52.716;23.560;2023-05-19T11:34:51;3;3;2
70520;PMS5003;58442;52.716;23.560;2023-05-19T11:36:54;4;4;4
70520;PMS5003;58442;52.716;23.560;2023-05-19T11:38:58;5;5;4
70520;PMS5003;58442;52.716;23.560;2023-05-19T11:41:01;5;5;5
70520;PMS5003;58442;52.716;23.560;2023-05-19T11:43:04;5;5;5
70520;PMS5003;58442;52.716;23.560;2023-05-19T11:45:08;3;3;2
70520;PMS5003;58442;52.716;23.560;2023-05-19T11:47:14;2;2;2
70520;PMS5003;58442;52.716;23.560;2023-05-19T11:49:17;5;5;4
70520;PMS5003;58442;52.716;23.560;2023-05-19T11:51:19;4;4;4
70520;PMS5003;58442;52.716;23.560;2023-05-19T11:53:22;3;3;2
70520;PMS5003;58442;52.716;23.560;2023-05-19T11:55:24;2;2;2
70520;PMS5003;58442;52.716;23.560;2023-05-19T11:57:26;3;3;3
70520;PMS5003;58442;52.716;23.560;2023-05-19T11:59:28;4;4;4
70520;PMS5003;58442;52.716;23.560;2023-05-19T12:01:37;4;4;4
70520;PMS5003;58442;52.716;23.560;2023-05-19T12:03:39;4;4;4
70520;PMS5003;58442;52.716;23.560;2023-05-19T12:05:43;3;3;3
70520;PMS5003;58442;52.716;23.560;2023-05-19T12:07:48;3;3;3
70520;PMS5003;58442;52.716;23.560;2023-05-19T12:09:52;4;4;3
70520;PMS5003;58442;52.716;23.560;2023-05-19T12:11:55;5;5;4
70520;PMS5003;58442;52.716;23.560;2023-05-19T12:13:57;4;4;4
70520;PMS5003;58442;52.716;23.560;2023-05-19T12:16:00;4;4;3
70520;PMS5003;58442;52.716;23.560;2023-05-19T12:18:06;3;3;3
70520;PMS5003;58442;52.716;23.560;2023-05-19T12:20:09;3;3;2
70520;PMS5003;58442;52.716;23.560;2023-05-19T12:22:12;3;3;3
70520;PMS5003;58442;52.716;23.560;2023-05-19T12:24:15;3;3;3
70520;PMS5003;58442;52.716;23.560;2023-05-19T12:26:21;2;2;2
70520;PMS5003;58442;52.716;23.560;2023-05-19T12:28:23;2;2;2
70520;PMS5003;58442;52.716;23.560;2023-05-19T12:30:27;1;1;1
70520;PMS5003;58442;52.716;23.560;2023-05-19T12:32:31;2;2;2
70520;PMS5003;58442;52.716;23.560;2023-05-19T12:34:36;3;3;3
70520;PMS5003;58442;52.716;23.560;2023-05-19T12:36:39;2;2;2
70520;PMS5003;58442;52.716;23.560;2023-05-19T12:38:41;2;2;2
70520;PMS5003;58442;52.716;23.560;2023-05-19T12:40:44;3;3;3
70520;PMS5003;58442;52.716;23.560;2023-05-19T12:42:50;3;3;3
70520;PMS5003;58442;52.716;23.560;2023-05-19T12:44:59;3;3;3
70520;PMS5003;58442;52.716;23.560;2023-05-19T12:47:03;4;4;4
70520;PMS5003;58442;52.716;23.560;2023-05-19T12:49:06;4;4;4
70520;PMS5003;58442;52.716;23.560;2023-05-19T12:51:08;3;3;1
70520;PMS5003;58442;52.716;23.560;2023-05-19T12:53:11;4;4;3
70520;PMS5003;58442;52.716;23.560;2023-05-19T12:55:14;3;3;3
70520;PMS5003;58442;52.716;23.560;2023-05-19T12:57:16;4;4;3
70520;PMS5003;58442;52.716;23.560;2023-05-19T12:59:24;4;4;4
70520;PMS5003;58442;52.716;23.560;2023-05-19T13:01:27;4;4;4
70520;PMS5003;58442;52.716;23.560;2023-05-19T13:03:30;4;4;4
70520;PMS5003;58442;52.716;23.560;2023-05-19T13:05:35;4;4;3
70520;PMS5003;58442;52.716;23.560;2023-05-19T13:07:38;3;3;3
70520;PMS5003;58442;52.716;23.560;2023-05-19T13:09:41;2;2;2
70520;PMS5003;58442;52.716;23.560;2023-05-19T13:11:42;4;4;4
70520;PMS5003;58442;52.716;23.560;2023-05-19T13:13:44;5;5;4
70520;PMS5003;58442;52.716;23.560;2023-05-19T13:15:50;3;3;3
70520;PMS5003;58442;52.716;23.560;2023-05-19T13:17:52;5;5;4
70520;PMS5003;58442;52.716;23.560;2023-05-19T13:19:54;4;4;4
70520;PMS5003;58442;52.716;23.560;2023-05-19T13:21:57;3;3;3
70520;PMS5003;58442;52.716;23.560;2023-05-19T13:24:05;3;3;3
70520;PMS5003;58442;52.716;23.560;2023-05-19T13:26:07;4;4;4
70520;PMS5003;58442;52.716;23.560;2023-05-19T13:28:11;3;3;3
70520;PMS5003;58442;52.716;23.560;2023-05-19T13:30:12;4;4;3
70520;PMS5003;58442;52.716;23.560;2023-05-19T13:32:20;4;4;4
70520;PMS5003;58442;52.716;23.560;2023-05-19T13:34:21;6;6;5
70520;PMS5003;58442;52.716;23.560;2023-05-19T13:36:24;4;4;3
70520;PMS5003;58442;52.716;23.560;2023-05-19T13:38:27;3;3;3
70520;PMS5003;58442;52.716;23.560;2023-05-19T13:40:34;2;2;2
70520;PMS5003;58442;52.716;23.560;2023-05-19T13:42:36;4;4;3
70520;PMS5003;58442;52.716;23.560;2023-05-19T13:44:38;3;3;3
70520;PMS5003;58442;52.716;23.560;2023-05-19T13:46:41;4;4;3
70520;PMS5003;58442;52.716;23.560;2023-05-19T13:48:49;5;5;3
70520;PMS5003;58442;52.716;23.560;2023-05-19T13:50:50;4;4;4
70520;PMS5003;58442;52.716;23.560;2023-05-19T13:52:55;3;3;3
70520;PMS5003;58442;52.716;23.560;2023-05-19T13:54:56;3;3;3
70520;PMS5003;58442;52.716;23.560;2023-05-19T13:57:04;4;4;3
70520;PMS5003;58442;52.716;23.560;2023-05-19T13:59:06;6;6;5
70520;PMS5003;58442;52.716;23.560;2023-05-19T14:01:08;7;6;5
70520;PMS5003;58442;52.716;23.560;2023-05-19T14:03:10;3;3;3
70520;PMS5003;58442;52.716;23.560;2023-05-19T14:05:19;7;7;5
70520;PMS5003;58442;52.716;23.560;2023-05-19T14:07:21;7;7;6
70520;PMS5003;58442;52.716;23.560;2023-05-19T14:09:23;7;7;7
70520;PMS5003;58442;52.716;23.560;2023-05-19T14:11:24;7;7;6
70520;PMS5003;58442;52.716;23.560;2023-05-19T14:13:33;5;5;5
70520;PMS5003;58442;52.716;23.560;2023-05-19T14:15:37;6;6;5
70520;PMS5003;58442;52.716;23.560;2023-05-19T14:17:38;6;6;6